sensor_id;sensor_type;location;lat;lon;timestamp;P1;durP1;ratioP1;P2;durP2;ratioP2
16642;SDS011;8435;52.184;5.406;2022-09-28T00:01:05;4.77;;;4.37;;
16642;SDS011;8435;52.184;5.406;2022-09-28T00:03:33;4.00;;;3.70;;
16642;SDS011;8435;52.184;5.406;2022-09-28T00:06:01;5.03;;;4.33;;
16642;SDS011;8435;52.184;5.406;2022-09-28T00:08:29;4.93;;;4.50;;
16642;SDS011;8435;52.184;5.406;2022-09-28T00:10:56;7.63;;;4.90;;
16642;SDS011;8435;52.184;5.406;2022-09-28T00:13:23;4.93;;;4.27;;
16642;SDS011;8435;52.184;5.406;2022-09-28T00:16:04;4.87;;;4.47;;
16642;SDS011;8435;52.184;5.406;2022-09-28T00:18:33;6.63;;;4.47;;
16642;SDS011;8435;52.184;5.406;2022-09-28T00:21:01;5.00;;;4.60;;
16642;SDS011;8435;52.184;5.406;2022-09-28T00:23:33;4.73;;;4.40;;
16642;SDS011;8435;52.184;5.406;2022-09-28T00:26:21;5.53;;;4.90;;
16642;SDS011;8435;52.184;5.406;2022-09-28T00:28:50;4.83;;;4.43;;
16642;SDS011;8435;52.184;5.406;2022-09-28T00:31:19;4.97;;;4.43;;
16642;SDS011;8435;52.184;5.406;2022-09-28T00:33:48;4.57;;;4.17;;
16642;SDS011;8435;52.184;5.406;2022-09-28T00:36:15;4.50;;;4.10;;
16642;SDS011;8435;52.184;5.406;2022-09-28T00:38:42;5.33;;;4.83;;
16642;SDS011;8435;52.184;5.406;2022-09-28T00:41:10;4.60;;;4.20;;
16642;SDS011;8435;52.184;5.406;2022-09-28T00:43:37;4.43;;;4.03;;
16642;SDS011;8435;52.184;5.406;2022-09-28T00:46:05;5.23;;;4.30;;
16642;SDS011;8435;52.184;5.406;2022-09-28T00:48:40;5.00;;;4.50;;
16642;SDS011;8435;52.184;5.406;2022-09-28T00:51:15;6.47;;;4.07;;
16642;SDS011;8435;52.184;5.406;2022-09-28T00:53:43;4.80;;;4.30;;
16642;SDS011;8435;52.184;5.406;2022-09-28T00:56:14;4.50;;;4.10;;
16642;SDS011;8435;52.184;5.406;2022-09-28T00:58:47;3.97;;;3.57;;
16642;SDS011;8435;52.184;5.406;2022-09-28T01:01:16;4.10;;;3.73;;
16642;SDS011;8435;52.184;5.406;2022-09-28T01:03:45;4.40;;;3.90;;
16642;SDS011;8435;52.184;5.406;2022-09-28T01:06:14;4.23;;;3.93;;
16642;SDS011;8435;52.184;5.406;2022-09-28T01:08:43;4.17;;;3.40;;
16642;SDS011;8435;52.184;5.406;2022-09-28T01:11:15;4.40;;;4.00;;
16642;SDS011;8435;52.184;5.406;2022-09-28T01:13:45;4.33;;;3.93;;
16642;SDS011;8435;52.184;5.406;2022-09-28T01:16:17;3.83;;;3.30;;
16642;SDS011;8435;52.184;5.406;2022-09-28T01:18:55;3.50;;;3.20;;
16642;SDS011;8435;52.184;5.406;2022-09-28T01:21:30;3.30;;;3.00;;
16642;SDS011;8435;52.184;5.406;2022-09-28T01:24:26;3.90;;;3.50;;
16642;SDS011;8435;52.184;5.406;2022-09-28T01:27:06;4.00;;;2.97;;
16642;SDS011;8435;52.184;5.406;2022-09-28T01:29:42;3.67;;;2.87;;
16642;SDS011;8435;52.184;5.406;2022-09-28T01:32:19;4.23;;;2.80;;
16642;SDS011;8435;52.184;5.406;2022-09-28T01:35:02;2.87;;;2.67;;
16642;SDS011;8435;52.184;5.406;2022-09-28T01:37:37;2.67;;;2.40;;
16642;SDS011;8435;52.184;5.406;2022-09-28T01:40:11;2.80;;;2.60;;
16642;SDS011;8435;52.184;5.406;2022-09-28T01:42:42;2.83;;;2.63;;
16642;SDS011;8435;52.184;5.406;2022-09-28T01:45:13;2.57;;;2.33;;
16642;SDS011;8435;52.184;5.406;2022-09-28T01:47:43;2.83;;;2.30;;
16642;SDS011;8435;52.184;5.406;2022-09-28T01:50:12;2.47;;;2.27;;
16642;SDS011;8435;52.184;5.406;2022-09-28T01:52:43;2.97;;;2.70;;
16642;SDS011;8435;52.184;5.406;2022-09-28T01:55:16;2.30;;;2.10;;
16642;SDS011;8435;52.184;5.406;2022-09-28T01:57:51;2.80;;;2.30;;
16642;SDS011;8435;52.184;5.406;2022-09-28T02:00:23;2.30;;;2.10;;
16642;SDS011;8435;52.184;5.406;2022-09-28T02:02:54;2.77;;;2.30;;
16642;SDS011;8435;52.184;5.406;2022-09-28T02:05:26;2.83;;;2.00;;
16642;SDS011;8435;52.184;5.406;2022-09-28T02:07:58;2.83;;;1.93;;
16642;SDS011;8435;52.184;5.406;2022-09-28T02:10:31;2.50;;;2.20;;
16642;SDS011;8435;52.184;5.406;2022-09-28T02:13:04;1.93;;;1.60;;
16642;SDS011;8435;52.184;5.406;2022-09-28T02:15:39;3.20;;;2.10;;
16642;SDS011;8435;52.184;5.406;2022-09-28T02:18:11;2.20;;;2.00;;
16642;SDS011;8435;52.184;5.406;2022-09-28T02:20:38;2.30;;;2.20;;
16642;SDS011;8435;52.184;5.406;2022-09-28T02:23:14;2.37;;;2.13;;
16642;SDS011;8435;52.184;5.406;2022-09-28T02:25:43;2.77;;;2.43;;
16642;SDS011;8435;52.184;5.406;2022-09-28T02:28:15;2.37;;;2.17;;
16642;SDS011;8435;52.184;5.406;2022-09-28T02:30:42;3.20;;;2.20;;
16642;SDS011;8435;52.184;5.406;2022-09-28T02:33:11;2.90;;;2.53;;
16642;SDS011;8435;52.184;5.406;2022-09-28T02:35:41;2.80;;;2.27;;
16642;SDS011;8435;52.184;5.406;2022-09-28T02:38:09;2.57;;;2.37;;
16642;SDS011;8435;52.184;5.406;2022-09-28T02:40:36;2.60;;;2.37;;
16642;SDS011;8435;52.184;5.406;2022-09-28T02:43:08;4.00;;;2.30;;
16642;SDS011;8435;52.184;5.406;2022-09-28T02:45:46;2.83;;;2.40;;
16642;SDS011;8435;52.184;5.406;2022-09-28T02:48:24;2.67;;;2.37;;
16642;SDS011;8435;52.184;5.406;2022-09-28T02:51:08;3.60;;;2.70;;
16642;SDS011;8435;52.184;5.406;2022-09-28T02:53:49;3.13;;;2.83;;
16642;SDS011;8435;52.184;5.406;2022-09-28T02:56:40;3.43;;;2.40;;
16642;SDS011;8435;52.184;5.406;2022-09-28T02:59:21;2.97;;;2.70;;
16642;SDS011;8435;52.184;5.406;2022-09-28T03:02:10;2.83;;;2.63;;
16642;SDS011;8435;52.184;5.406;2022-09-28T03:04:48;2.60;;;2.40;;
16642;SDS011;8435;52.184;5.406;2022-09-28T03:07:27;3.00;;;2.70;;
16642;SDS011;8435;52.184;5.406;2022-09-28T03:10:00;3.00;;;2.70;;
16642;SDS011;8435;52.184;5.406;2022-09-28T03:12:31;2.63;;;2.43;;
16642;SDS011;8435;52.184;5.406;2022-09-28T03:15:05;3.10;;;2.60;;
16642;SDS011;8435;52.184;5.406;2022-09-28T03:17:38;2.87;;;2.67;;
16642;SDS011;8435;52.184;5.406;2022-09-28T03:20:05;2.70;;;2.50;;
16642;SDS011;8435;52.184;5.406;2022-09-28T03:22:35;2.70;;;2.50;;
16642;SDS011;8435;52.184;5.406;2022-09-28T03:25:01;2.60;;;2.40;;
16642;SDS011;8435;52.184;5.406;2022-09-28T03:27:29;2.60;;;2.40;;
16642;SDS011;8435;52.184;5.406;2022-09-28T03:29:56;2.93;;;2.30;;
16642;SDS011;8435;52.184;5.406;2022-09-28T03:32:23;3.80;;;2.27;;
16642;SDS011;8435;52.184;5.406;2022-09-28T03:34:51;2.10;;;1.90;;
16642;SDS011;8435;52.184;5.406;2022-09-28T03:37:18;2.57;;;2.37;;
16642;SDS011;8435;52.184;5.406;2022-09-28T03:39:45;1.90;;;1.80;;
16642;SDS011;8435;52.184;5.406;2022-09-28T03:42:12;2.40;;;2.20;;
16642;SDS011;8435;52.184;5.406;2022-09-28T03:44:39;2.20;;;2.10;;
16642;SDS011;8435;52.184;5.406;2022-09-28T03:47:06;2.90;;;2.17;;
16642;SDS011;8435;52.184;5.406;2022-09-28T03:49:33;2.10;;;2.00;;
16642;SDS011;8435;52.184;5.406;2022-09-28T03:52:02;2.23;;;2.00;;
16642;SDS011;8435;52.184;5.406;2022-09-28T03:54:29;3.00;;;1.70;;
16642;SDS011;8435;52.184;5.406;2022-09-28T03:56:56;1.83;;;1.73;;
16642;SDS011;8435;52.184;5.406;2022-09-28T03:59:23;1.70;;;1.60;;
16642;SDS011;8435;52.184;5.406;2022-09-28T04:01:50;2.27;;;1.57;;
16642;SDS011;8435;52.184;5.406;2022-09-28T04:04:17;1.60;;;1.47;;
16642;SDS011;8435;52.184;5.406;2022-09-28T04:06:44;1.63;;;1.30;;
16642;SDS011;8435;52.184;5.406;2022-09-28T04:09:12;1.60;;;1.43;;
16642;SDS011;8435;52.184;5.406;2022-09-28T04:11:40;1.93;;;1.17;;
16642;SDS011;8435;52.184;5.406;2022-09-28T04:14:07;1.50;;;1.40;;
16642;SDS011;8435;52.184;5.406;2022-09-28T04:16:34;1.60;;;1.40;;
16642;SDS011;8435;52.184;5.406;2022-09-28T04:19:01;2.83;;;1.47;;
16642;SDS011;8435;52.184;5.406;2022-09-28T04:21:28;1.83;;;1.30;;
16642;SDS011;8435;52.184;5.406;2022-09-28T04:23:55;1.67;;;1.57;;
16642;SDS011;8435;52.184;5.406;2022-09-28T04:26:25;1.93;;;1.40;;
16642;SDS011;8435;52.184;5.406;2022-09-28T04:28:52;1.67;;;1.40;;
16642;SDS011;8435;52.184;5.406;2022-09-28T04:31:37;1.27;;;1.20;;
16642;SDS011;8435;52.184;5.406;2022-09-28T04:34:06;1.17;;;1.00;;
16642;SDS011;8435;52.184;5.406;2022-09-28T04:36:33;3.40;;;1.30;;
16642;SDS011;8435;52.184;5.406;2022-09-28T04:39:05;1.40;;;1.30;;
16642;SDS011;8435;52.184;5.406;2022-09-28T04:41:34;1.37;;;1.27;;
16642;SDS011;8435;52.184;5.406;2022-09-28T04:44:01;1.60;;;1.50;;
16642;SDS011;8435;52.184;5.406;2022-09-28T04:46:28;1.37;;;1.27;;
16642;SDS011;8435;52.184;5.406;2022-09-28T04:48:55;2.00;;;1.20;;
16642;SDS011;8435;52.184;5.406;2022-09-28T04:51:22;2.43;;;1.43;;
16642;SDS011;8435;52.184;5.406;2022-09-28T04:53:49;1.20;;;1.10;;
16642;SDS011;8435;52.184;5.406;2022-09-28T04:56:16;1.20;;;1.10;;
16642;SDS011;8435;52.184;5.406;2022-09-28T04:58:45;1.00;;;1.00;;
16642;SDS011;8435;52.184;5.406;2022-09-28T05:01:13;1.10;;;1.10;;
16642;SDS011;8435;52.184;5.406;2022-09-28T05:03:41;1.20;;;1.10;;
16642;SDS011;8435;52.184;5.406;2022-09-28T05:06:09;1.37;;;1.20;;
16642;SDS011;8435;52.184;5.406;2022-09-28T05:08:38;1.33;;;1.23;;
16642;SDS011;8435;52.184;5.406;2022-09-28T05:11:06;2.87;;;1.27;;
16642;SDS011;8435;52.184;5.406;2022-09-28T05:13:38;1.23;;;1.13;;
16642;SDS011;8435;52.184;5.406;2022-09-28T05:16:08;1.60;;;1.23;;
16642;SDS011;8435;52.184;5.406;2022-09-28T05:18:35;1.53;;;1.43;;
16642;SDS011;8435;52.184;5.406;2022-09-28T05:21:02;1.50;;;1.40;;
16642;SDS011;8435;52.184;5.406;2022-09-28T05:23:30;1.80;;;1.20;;
16642;SDS011;8435;52.184;5.406;2022-09-28T05:25:59;1.23;;;1.10;;
16642;SDS011;8435;52.184;5.406;2022-09-28T05:28:27;1.53;;;1.40;;
16642;SDS011;8435;52.184;5.406;2022-09-28T05:30:59;1.60;;;1.50;;
16642;SDS011;8435;52.184;5.406;2022-09-28T05:33:31;2.80;;;1.60;;
16642;SDS011;8435;52.184;5.406;2022-09-28T05:35:59;1.40;;;1.30;;
16642;SDS011;8435;52.184;5.406;2022-09-28T05:38:26;3.93;;;1.50;;
16642;SDS011;8435;52.184;5.406;2022-09-28T05:40:52;1.77;;;1.43;;
16642;SDS011;8435;52.184;5.406;2022-09-28T05:43:19;1.43;;;1.33;;
16642;SDS011;8435;52.184;5.406;2022-09-28T05:45:46;1.53;;;1.43;;
16642;SDS011;8435;52.184;5.406;2022-09-28T05:48:16;1.53;;;1.43;;
16642;SDS011;8435;52.184;5.406;2022-09-28T05:50:44;1.70;;;1.60;;
16642;SDS011;8435;52.184;5.406;2022-09-28T05:53:15;1.50;;;1.40;;
16642;SDS011;8435;52.184;5.406;2022-09-28T05:55:43;1.60;;;1.50;;
16642;SDS011;8435;52.184;5.406;2022-09-28T05:58:10;1.80;;;1.70;;
16642;SDS011;8435;52.184;5.406;2022-09-28T06:00:37;1.83;;;1.50;;
16642;SDS011;8435;52.184;5.406;2022-09-28T06:03:04;1.53;;;1.27;;
16642;SDS011;8435;52.184;5.406;2022-09-28T06:05:33;1.50;;;1.40;;
16642;SDS011;8435;52.184;5.406;2022-09-28T06:08:02;2.00;;;1.70;;
16642;SDS011;8435;52.184;5.406;2022-09-28T06:10:30;1.50;;;1.30;;
16642;SDS011;8435;52.184;5.406;2022-09-28T06:12:58;1.63;;;1.57;;
16642;SDS011;8435;52.184;5.406;2022-09-28T06:15:27;1.60;;;1.50;;
16642;SDS011;8435;52.184;5.406;2022-09-28T06:17:56;1.57;;;1.47;;
16642;SDS011;8435;52.184;5.406;2022-09-28T06:20:23;2.07;;;1.70;;
16642;SDS011;8435;52.184;5.406;2022-09-28T06:22:51;1.43;;;1.30;;
16642;SDS011;8435;52.184;5.406;2022-09-28T06:25:20;2.10;;;1.50;;
16642;SDS011;8435;52.184;5.406;2022-09-28T06:27:54;1.60;;;1.50;;
16642;SDS011;8435;52.184;5.406;2022-09-28T06:30:22;3.70;;;1.53;;
16642;SDS011;8435;52.184;5.406;2022-09-28T06:32:51;1.50;;;1.27;;
16642;SDS011;8435;52.184;5.406;2022-09-28T06:35:20;1.50;;;1.40;;
16642;SDS011;8435;52.184;5.406;2022-09-28T06:37:47;1.20;;;1.10;;
16642;SDS011;8435;52.184;5.406;2022-09-28T06:40:14;2.10;;;1.20;;
16642;SDS011;8435;52.184;5.406;2022-09-28T06:43:18;2.97;;;1.10;;
16642;SDS011;8435;52.184;5.406;2022-09-28T06:45:49;1.30;;;1.20;;
16642;SDS011;8435;52.184;5.406;2022-09-28T06:48:17;1.30;;;1.20;;
16642;SDS011;8435;52.184;5.406;2022-09-28T06:50:44;1.43;;;0.97;;
16642;SDS011;8435;52.184;5.406;2022-09-28T06:53:12;1.33;;;1.10;;
16642;SDS011;8435;52.184;5.406;2022-09-28T06:55:43;1.20;;;1.10;;
16642;SDS011;8435;52.184;5.406;2022-09-28T06:58:14;1.30;;;1.10;;
16642;SDS011;8435;52.184;5.406;2022-09-28T07:00:45;3.27;;;1.50;;
16642;SDS011;8435;52.184;5.406;2022-09-28T07:03:15;2.17;;;1.33;;
16642;SDS011;8435;52.184;5.406;2022-09-28T07:05:45;1.20;;;1.07;;
16642;SDS011;8435;52.184;5.406;2022-09-28T07:08:14;1.07;;;1.07;;
16642;SDS011;8435;52.184;5.406;2022-09-28T07:10:42;0.80;;;0.80;;
16642;SDS011;8435;52.184;5.406;2022-09-28T07:13:10;1.10;;;1.00;;
16642;SDS011;8435;52.184;5.406;2022-09-28T07:15:38;0.97;;;0.97;;
16642;SDS011;8435;52.184;5.406;2022-09-28T07:18:08;1.03;;;1.03;;
16642;SDS011;8435;52.184;5.406;2022-09-28T07:20:36;1.20;;;1.10;;
16642;SDS011;8435;52.184;5.406;2022-09-28T07:23:04;0.80;;;0.80;;
16642;SDS011;8435;52.184;5.406;2022-09-28T07:25:33;1.57;;;0.90;;
16642;SDS011;8435;52.184;5.406;2022-09-28T07:28:02;1.37;;;1.27;;
16642;SDS011;8435;52.184;5.406;2022-09-28T07:30:30;1.90;;;1.20;;
16642;SDS011;8435;52.184;5.406;2022-09-28T07:32:59;1.10;;;1.00;;
16642;SDS011;8435;52.184;5.406;2022-09-28T07:35:31;1.20;;;1.10;;
16642;SDS011;8435;52.184;5.406;2022-09-28T07:38:02;2.10;;;1.20;;
16642;SDS011;8435;52.184;5.406;2022-09-28T07:40:31;1.20;;;1.10;;
16642;SDS011;8435;52.184;5.406;2022-09-28T07:43:16;1.07;;;1.00;;
16642;SDS011;8435;52.184;5.406;2022-09-28T07:45:44;1.30;;;1.20;;
16642;SDS011;8435;52.184;5.406;2022-09-28T07:48:12;1.80;;;1.50;;
16642;SDS011;8435;52.184;5.406;2022-09-28T07:50:41;1.30;;;1.20;;
16642;SDS011;8435;52.184;5.406;2022-09-28T07:53:12;1.20;;;1.10;;
16642;SDS011;8435;52.184;5.406;2022-09-28T07:55:39;1.30;;;1.20;;
16642;SDS011;8435;52.184;5.406;2022-09-28T07:58:11;1.70;;;1.00;;
16642;SDS011;8435;52.184;5.406;2022-09-28T08:00:38;1.97;;;1.20;;
16642;SDS011;8435;52.184;5.406;2022-09-28T08:03:05;1.57;;;1.00;;
16642;SDS011;8435;52.184;5.406;2022-09-28T08:05:35;2.20;;;1.00;;
16642;SDS011;8435;52.184;5.406;2022-09-28T08:08:05;1.60;;;0.90;;
16642;SDS011;8435;52.184;5.406;2022-09-28T08:10:32;1.00;;;1.00;;
16642;SDS011;8435;52.184;5.406;2022-09-28T08:12:59;1.20;;;1.10;;
16642;SDS011;8435;52.184;5.406;2022-09-28T08:15:35;0.80;;;0.80;;
16642;SDS011;8435;52.184;5.406;2022-09-28T08:18:02;1.70;;;0.90;;
16642;SDS011;8435;52.184;5.406;2022-09-28T08:20:30;1.07;;;0.70;;
16642;SDS011;8435;52.184;5.406;2022-09-28T08:23:16;1.80;;;0.80;;
16642;SDS011;8435;52.184;5.406;2022-09-28T08:25:47;0.80;;;0.60;;
16642;SDS011;8435;52.184;5.406;2022-09-28T08:28:16;0.90;;;0.80;;
16642;SDS011;8435;52.184;5.406;2022-09-28T08:30:52;1.27;;;0.63;;
16642;SDS011;8435;52.184;5.406;2022-09-28T08:33:19;2.77;;;0.90;;
16642;SDS011;8435;52.184;5.406;2022-09-28T08:35:46;1.27;;;0.80;;
16642;SDS011;8435;52.184;5.406;2022-09-28T08:38:23;1.03;;;0.80;;
16642;SDS011;8435;52.184;5.406;2022-09-28T08:40:53;1.30;;;0.77;;
16642;SDS011;8435;52.184;5.406;2022-09-28T08:46:19;1.63;;;0.70;;
16642;SDS011;8435;52.184;5.406;2022-09-28T08:48:50;1.80;;;1.07;;
16642;SDS011;8435;52.184;5.406;2022-09-28T08:51:22;1.07;;;0.80;;
16642;SDS011;8435;52.184;5.406;2022-09-28T08:53:56;1.30;;;1.20;;
16642;SDS011;8435;52.184;5.406;2022-09-28T08:56:30;0.70;;;0.70;;
16642;SDS011;8435;52.184;5.406;2022-09-28T08:59:04;0.70;;;0.70;;
16642;SDS011;8435;52.184;5.406;2022-09-28T09:01:41;0.80;;;0.60;;
16642;SDS011;8435;52.184;5.406;2022-09-28T09:04:13;1.03;;;0.70;;
16642;SDS011;8435;52.184;5.406;2022-09-28T09:06:53;0.70;;;0.70;;
16642;SDS011;8435;52.184;5.406;2022-09-28T09:09:46;0.70;;;0.70;;
16642;SDS011;8435;52.184;5.406;2022-09-28T09:12:26;1.27;;;0.80;;
16642;SDS011;8435;52.184;5.406;2022-09-28T09:18:06;0.77;;;0.77;;
16642;SDS011;8435;52.184;5.406;2022-09-28T09:20:44;0.70;;;0.70;;
16642;SDS011;8435;52.184;5.406;2022-09-28T09:23:16;1.17;;;0.47;;
16642;SDS011;8435;52.184;5.406;2022-09-28T09:25:48;0.67;;;0.67;;
16642;SDS011;8435;52.184;5.406;2022-09-28T09:31:41;0.60;;;0.60;;
16642;SDS011;8435;52.184;5.406;2022-09-28T09:37:14;0.73;;;0.57;;
16642;SDS011;8435;52.184;5.406;2022-09-28T09:39:58;0.77;;;0.50;;
16642;SDS011;8435;52.184;5.406;2022-09-28T09:42:52;0.60;;;0.50;;
16642;SDS011;8435;52.184;5.406;2022-09-28T09:45:34;0.40;;;0.40;;
16642;SDS011;8435;52.184;5.406;2022-09-28T09:48:14;0.23;;;0.23;;
16642;SDS011;8435;52.184;5.406;2022-09-28T09:50:47;0.30;;;0.30;;
16642;SDS011;8435;52.184;5.406;2022-09-28T09:53:17;0.33;;;0.30;;
16642;SDS011;8435;52.184;5.406;2022-09-28T09:55:53;0.30;;;0.30;;
16642;SDS011;8435;52.184;5.406;2022-09-28T09:58:34;0.30;;;0.30;;
16642;SDS011;8435;52.184;5.406;2022-09-28T10:01:06;0.67;;;0.40;;
16642;SDS011;8435;52.184;5.406;2022-09-28T10:03:38;0.40;;;0.40;;
16642;SDS011;8435;52.184;5.406;2022-09-28T10:06:09;1.00;;;0.40;;
16642;SDS011;8435;52.184;5.406;2022-09-28T10:08:39;0.50;;;0.50;;
16642;SDS011;8435;52.184;5.406;2022-09-28T10:11:10;0.93;;;0.43;;
16642;SDS011;8435;52.184;5.406;2022-09-28T10:13:44;0.97;;;0.50;;
16642;SDS011;8435;52.184;5.406;2022-09-28T10:16:12;0.53;;;0.50;;
16642;SDS011;8435;52.184;5.406;2022-09-28T10:18:40;0.50;;;0.50;;
16642;SDS011;8435;52.184;5.406;2022-09-28T10:21:10;0.83;;;0.40;;
16642;SDS011;8435;52.184;5.406;2022-09-28T10:23:38;1.53;;;0.30;;
16642;SDS011;8435;52.184;5.406;2022-09-28T10:26:06;0.30;;;0.30;;
16642;SDS011;8435;52.184;5.406;2022-09-28T10:28:39;0.37;;;0.37;;
16642;SDS011;8435;52.184;5.406;2022-09-28T10:34:04;0.30;;;0.30;;
16642;SDS011;8435;52.184;5.406;2022-09-28T10:36:32;0.40;;;0.40;;
16642;SDS011;8435;52.184;5.406;2022-09-28T10:39:18;0.63;;;0.37;;
16642;SDS011;8435;52.184;5.406;2022-09-28T10:41:54;0.40;;;0.30;;
16642;SDS011;8435;52.184;5.406;2022-09-28T10:44:24;1.20;;;0.37;;
16642;SDS011;8435;52.184;5.406;2022-09-28T10:46:54;0.30;;;0.30;;
16642;SDS011;8435;52.184;5.406;2022-09-28T10:49:24;0.60;;;0.60;;
16642;SDS011;8435;52.184;5.406;2022-09-28T10:51:52;1.33;;;0.50;;
16642;SDS011;8435;52.184;5.406;2022-09-28T10:54:22;2.00;;;0.30;;
16642;SDS011;8435;52.184;5.406;2022-09-28T10:56:50;0.33;;;0.27;;
16642;SDS011;8435;52.184;5.406;2022-09-28T10:59:22;0.40;;;0.40;;
16642;SDS011;8435;52.184;5.406;2022-09-28T11:01:59;0.40;;;0.40;;
16642;SDS011;8435;52.184;5.406;2022-09-28T11:04:30;0.83;;;0.40;;
16642;SDS011;8435;52.184;5.406;2022-09-28T11:07:03;0.40;;;0.40;;
16642;SDS011;8435;52.184;5.406;2022-09-28T11:09:40;0.50;;;0.50;;
16642;SDS011;8435;52.184;5.406;2022-09-28T11:12:12;0.77;;;0.40;;
16642;SDS011;8435;52.184;5.406;2022-09-28T11:14:41;2.07;;;0.30;;
16642;SDS011;8435;52.184;5.406;2022-09-28T11:17:17;0.97;;;0.30;;
16642;SDS011;8435;52.184;5.406;2022-09-28T11:19:53;0.60;;;0.60;;
16642;SDS011;8435;52.184;5.406;2022-09-28T11:22:21;0.40;;;0.40;;
16642;SDS011;8435;52.184;5.406;2022-09-28T11:24:51;0.40;;;0.40;;
16642;SDS011;8435;52.184;5.406;2022-09-28T11:27:37;1.33;;;0.70;;
16642;SDS011;8435;52.184;5.406;2022-09-28T11:30:16;0.50;;;0.40;;
16642;SDS011;8435;52.184;5.406;2022-09-28T11:32:47;1.13;;;1.07;;
16642;SDS011;8435;52.184;5.406;2022-09-28T11:35:15;0.60;;;0.60;;
16642;SDS011;8435;52.184;5.406;2022-09-28T11:37:51;0.30;;;0.30;;
16642;SDS011;8435;52.184;5.406;2022-09-28T11:40:39;0.67;;;0.50;;
16642;SDS011;8435;52.184;5.406;2022-09-28T11:43:16;1.43;;;0.70;;
16642;SDS011;8435;52.184;5.406;2022-09-28T11:46:02;0.70;;;0.70;;
16642;SDS011;8435;52.184;5.406;2022-09-28T11:48:40;0.80;;;0.70;;
16642;SDS011;8435;52.184;5.406;2022-09-28T11:51:10;0.60;;;0.60;;
16642;SDS011;8435;52.184;5.406;2022-09-28T11:53:44;0.20;;;0.20;;
16642;SDS011;8435;52.184;5.406;2022-09-28T11:56:17;0.63;;;0.50;;
16642;SDS011;8435;52.184;5.406;2022-09-28T11:58:54;0.47;;;0.47;;
16642;SDS011;8435;52.184;5.406;2022-09-28T12:01:27;0.50;;;0.50;;
16642;SDS011;8435;52.184;5.406;2022-09-28T12:04:00;0.98;;;0.50;;
16642;SDS011;8435;52.184;5.406;2022-09-28T12:06:32;0.40;;;0.40;;
16642;SDS011;8435;52.184;5.406;2022-09-28T12:09:04;0.50;;;0.40;;
16642;SDS011;8435;52.184;5.406;2022-09-28T12:11:39;0.53;;;0.40;;
16642;SDS011;8435;52.184;5.406;2022-09-28T12:14:13;0.60;;;0.40;;
16642;SDS011;8435;52.184;5.406;2022-09-28T12:16:48;2.20;;;0.63;;
16642;SDS011;8435;52.184;5.406;2022-09-28T12:19:20;5.07;;;1.00;;
16642;SDS011;8435;52.184;5.406;2022-09-28T12:21:54;1.10;;;0.73;;
16642;SDS011;8435;52.184;5.406;2022-09-28T12:24:25;2.23;;;0.97;;
16642;SDS011;8435;52.184;5.406;2022-09-28T12:26:55;3.17;;;0.93;;
16642;SDS011;8435;52.184;5.406;2022-09-28T12:29:25;1.30;;;0.87;;
16642;SDS011;8435;52.184;5.406;2022-09-28T12:31:58;0.73;;;0.70;;
16642;SDS011;8435;52.184;5.406;2022-09-28T12:34:34;0.60;;;0.60;;
16642;SDS011;8435;52.184;5.406;2022-09-28T12:37:07;0.60;;;0.60;;
16642;SDS011;8435;52.184;5.406;2022-09-28T12:39:52;0.57;;;0.50;;
16642;SDS011;8435;52.184;5.406;2022-09-28T12:42:38;1.20;;;1.07;;
16642;SDS011;8435;52.184;5.406;2022-09-28T12:45:23;0.90;;;0.60;;
16642;SDS011;8435;52.184;5.406;2022-09-28T12:48:06;0.87;;;0.60;;
16642;SDS011;8435;52.184;5.406;2022-09-28T12:50:46;1.13;;;0.80;;
16642;SDS011;8435;52.184;5.406;2022-09-28T12:53:26;1.60;;;1.50;;
16642;SDS011;8435;52.184;5.406;2022-09-28T12:56:13;2.07;;;1.87;;
16642;SDS011;8435;52.184;5.406;2022-09-28T12:58:50;1.40;;;1.30;;
16642;SDS011;8435;52.184;5.406;2022-09-28T13:01:29;1.03;;;0.90;;
16642;SDS011;8435;52.184;5.406;2022-09-28T13:04:28;0.80;;;0.80;;
16642;SDS011;8435;52.184;5.406;2022-09-28T13:07:11;0.60;;;0.60;;
16642;SDS011;8435;52.184;5.406;2022-09-28T13:09:50;1.23;;;0.70;;
16642;SDS011;8435;52.184;5.406;2022-09-28T13:12:29;1.50;;;0.87;;
16642;SDS011;8435;52.184;5.406;2022-09-28T13:18:06;0.60;;;0.60;;
16642;SDS011;8435;52.184;5.406;2022-09-28T13:20:41;1.10;;;0.60;;
16642;SDS011;8435;52.184;5.406;2022-09-28T13:23:15;1.67;;;0.60;;
16642;SDS011;8435;52.184;5.406;2022-09-28T13:25:48;0.60;;;0.60;;
16642;SDS011;8435;52.184;5.406;2022-09-28T13:28:20;0.93;;;0.90;;
16642;SDS011;8435;52.184;5.406;2022-09-28T13:30:52;0.70;;;0.70;;
16642;SDS011;8435;52.184;5.406;2022-09-28T13:33:27;0.80;;;0.80;;
16642;SDS011;8435;52.184;5.406;2022-09-28T13:36:02;0.80;;;0.80;;
16642;SDS011;8435;52.184;5.406;2022-09-28T13:38:49;1.47;;;0.80;;
16642;SDS011;8435;52.184;5.406;2022-09-28T13:41:18;0.87;;;0.87;;
16642;SDS011;8435;52.184;5.406;2022-09-28T13:46:46;2.00;;;0.87;;
16642;SDS011;8435;52.184;5.406;2022-09-28T13:49:22;1.40;;;1.30;;
16642;SDS011;8435;52.184;5.406;2022-09-28T13:51:58;3.90;;;3.60;;
16642;SDS011;8435;52.184;5.406;2022-09-28T13:54:33;2.40;;;2.20;;
16642;SDS011;8435;52.184;5.406;2022-09-28T13:57:14;1.07;;;1.03;;
16642;SDS011;8435;52.184;5.406;2022-09-28T13:59:47;1.37;;;1.27;;
16642;SDS011;8435;52.184;5.406;2022-09-28T14:02:25;1.17;;;1.07;;
16642;SDS011;8435;52.184;5.406;2022-09-28T14:04:57;2.37;;;0.90;;
16642;SDS011;8435;52.184;5.406;2022-09-28T14:07:53;1.80;;;1.07;;
16642;SDS011;8435;52.184;5.406;2022-09-28T14:10:21;1.20;;;1.20;;
16642;SDS011;8435;52.184;5.406;2022-09-28T14:13:09;4.03;;;1.90;;
16642;SDS011;8435;52.184;5.406;2022-09-28T14:15:41;1.13;;;0.73;;
16642;SDS011;8435;52.184;5.406;2022-09-28T14:18:15;0.80;;;0.70;;
16642;SDS011;8435;52.184;5.406;2022-09-28T14:20:51;1.70;;;0.60;;
16642;SDS011;8435;52.184;5.406;2022-09-28T14:23:47;1.57;;;0.63;;
16642;SDS011;8435;52.184;5.406;2022-09-28T14:26:27;0.50;;;0.50;;
16642;SDS011;8435;52.184;5.406;2022-09-28T14:29:22;0.50;;;0.50;;
16642;SDS011;8435;52.184;5.406;2022-09-28T14:31:55;1.10;;;1.00;;
16642;SDS011;8435;52.184;5.406;2022-09-28T14:34:29;0.60;;;0.60;;
16642;SDS011;8435;52.184;5.406;2022-09-28T14:36:59;1.37;;;0.80;;
16642;SDS011;8435;52.184;5.406;2022-09-28T14:39:53;1.03;;;0.90;;
16642;SDS011;8435;52.184;5.406;2022-09-28T14:42:37;0.53;;;0.50;;
16642;SDS011;8435;52.184;5.406;2022-09-28T14:45:18;0.53;;;0.53;;
16642;SDS011;8435;52.184;5.406;2022-09-28T14:48:09;1.10;;;0.90;;
16642;SDS011;8435;52.184;5.406;2022-09-28T14:50:39;0.73;;;0.63;;
16642;SDS011;8435;52.184;5.406;2022-09-28T14:53:09;0.60;;;0.60;;
16642;SDS011;8435;52.184;5.406;2022-09-28T14:55:44;1.17;;;0.40;;
16642;SDS011;8435;52.184;5.406;2022-09-28T14:58:16;0.67;;;0.40;;
16642;SDS011;8435;52.184;5.406;2022-09-28T15:00:47;0.50;;;0.50;;
16642;SDS011;8435;52.184;5.406;2022-09-28T15:03:17;1.87;;;0.50;;
16642;SDS011;8435;52.184;5.406;2022-09-28T15:05:47;0.40;;;0.40;;
16642;SDS011;8435;52.184;5.406;2022-09-28T15:08:14;0.70;;;0.70;;
16642;SDS011;8435;52.184;5.406;2022-09-28T15:10:46;0.67;;;0.67;;
16642;SDS011;8435;52.184;5.406;2022-09-28T15:13:19;0.67;;;0.50;;
16642;SDS011;8435;52.184;5.406;2022-09-28T15:15:49;0.60;;;0.60;;
16642;SDS011;8435;52.184;5.406;2022-09-28T15:21:35;1.47;;;0.90;;
16642;SDS011;8435;52.184;5.406;2022-09-28T15:26:50;1.87;;;0.70;;
16642;SDS011;8435;52.184;5.406;2022-09-28T15:29:17;0.97;;;0.50;;
16642;SDS011;8435;52.184;5.406;2022-09-28T15:31:45;1.37;;;0.70;;
16642;SDS011;8435;52.184;5.406;2022-09-28T15:34:24;0.67;;;0.67;;
16642;SDS011;8435;52.184;5.406;2022-09-28T15:37:10;0.57;;;0.50;;
16642;SDS011;8435;52.184;5.406;2022-09-28T15:39:42;0.93;;;0.63;;
16642;SDS011;8435;52.184;5.406;2022-09-28T15:42:14;3.70;;;3.07;;
16642;SDS011;8435;52.184;5.406;2022-09-28T15:44:41;5.20;;;4.13;;
16642;SDS011;8435;52.184;5.406;2022-09-28T15:47:26;3.80;;;3.03;;
16642;SDS011;8435;52.184;5.406;2022-09-28T15:49:56;3.13;;;1.83;;
16642;SDS011;8435;52.184;5.406;2022-09-28T15:52:26;1.23;;;1.10;;
16642;SDS011;8435;52.184;5.406;2022-09-28T15:55:11;1.70;;;0.80;;
16642;SDS011;8435;52.184;5.406;2022-09-28T15:57:46;1.07;;;0.90;;
16642;SDS011;8435;52.184;5.406;2022-09-28T16:00:21;0.80;;;0.73;;